NZDT,Max TemperatureF,Mean TemperatureF,Min TemperatureF,Max Dew PointF,MeanDew PointF,Min DewpointF,Max Humidity, Mean Humidity, Min Humidity, Max Sea Level PressureIn, Mean Sea Level PressureIn, Min Sea Level PressureIn, Max VisibilityMiles, Mean VisibilityMiles, Min VisibilityMiles, Max Wind SpeedMPH, Mean Wind SpeedMPH, Max Gust SpeedMPH,PrecipitationIn, CloudCover, Events, WindDirDegrees
2011-10-1,66,54,41,48,44,36,100,69,34,30.01,29.91,29.83,6,6,6,22,11,,0.00,1,,44
2011-10-2,69,60,50,48,46,39,77,62,33,29.83,29.77,29.71,6,6,6,15,10,,0.00,1,,29
2011-10-3,53,50,48,50,47,45,94,85,72,29.86,29.80,29.74,6,6,6,16,8,,0.00,5,Rain,209
2011-10-4,46,45,44,46,44,43,100,96,87,30.01,29.90,29.83,6,6,6,15,12,,0.00,6,Rain,225
2011-10-5,48,45,42,45,41,37,100,84,71,30.18,30.12,30.01,6,6,6,12,7,,0.00,6,Rain,201
2011-10-6,53,47,41,46,43,41,100,86,71,30.15,29.99,29.83,6,6,6,12,4,,0.00,5,,29
2011-10-7,53,46,39,46,43,39,100,87,67,29.86,29.83,29.80,6,5,0,15,6,,0.00,6,Fog,230
2011-10-8,50,44,33,43,39,32,93,81,62,30.06,29.94,29.77,6,6,6,23,9,,0.00,5,Rain,190
2011-10-9,55,42,30,39,36,30,100,80,51,30.12,30.07,30.04,6,6,6,15,5,,0.00,2,,4
2011-10-10,55,46,37,50,44,36,100,84,67,30.09,30.00,29.86,6,6,6,30,15,40,0.00,3,,52
2011-10-11,64,58,51,52,50,45,100,79,55,29.86,29.72,29.65,6,6,6,34,21,40,0.00,5,Rain,37
2011-10-12,69,58,48,50,45,41,87,61,43,29.80,29.75,29.68,,,,22,11,,0.00,,,18
2011-10-13,62,55,48,54,48,45,100,82,63,29.77,29.73,29.68,6,6,3,12,8,,0.00,4,,236
2011-10-14,50,48,46,48,45,41,100,90,81,29.92,29.79,29.71,6,6,3,20,10,,0.00,7,,218
2011-10-15,53,48,44,45,43,41,93,83,67,30.04,29.97,29.92,6,6,6,16,9,,0.00,6,,222
2011-10-16,57,50,44,46,43,41,100,83,59,30.06,30.03,30.01,6,6,6,16,6,,0.00,4,Rain,185
2011-10-17,62,52,42,52,47,41,100,82,55,30.01,29.77,29.47,6,6,6,22,10,,0.00,2,,67
2011-10-18,57,52,46,52,45,41,94,83,59,29.59,29.50,29.44,6,6,6,30,13,40,0.00,6,Rain,239
2011-10-19,50,47,44,48,45,41,100,92,81,29.95,29.73,29.56,6,6,6,34,19,51,0.00,5,Rain,211
2011-10-20,59,50,41,52,46,41,100,85,67,29.95,29.86,29.71,6,6,6,15,7,,0.00,4,,360
2011-10-21,62,55,48,54,50,46,100,85,63,30.01,29.82,29.71,6,6,5,18,8,,0.00,4,Rain,80
2011-10-22,57,52,48,48,46,45,93,83,63,30.09,30.05,30.01,6,6,6,16,7,,0.00,6,Rain,203
2011-10-23,59,54,50,50,48,46,94,83,67,30.15,30.09,30.04,6,6,6,18,10,,0.00,6,,65
2011-10-24,69,58,46,54,48,39,100,71,37,30.09,29.84,29.56,6,6,6,24,10,32,0.00,5,,19
2011-10-25,66,57,48,50,44,34,94,66,32,29.89,29.70,29.53,6,6,6,30,19,44,0.00,5,,356
2011-10-26,60,53,46,50,45,36,100,82,39,30.24,29.85,29.53,6,6,2,18,9,,0.00,6,Rain,193
2011-10-27,55,50,44,45,42,39,100,77,54,30.39,30.34,30.27,6,6,6,22,7,,0.00,5,,49
2011-10-28,57,47,37,50,45,37,100,85,67,30.36,30.33,30.27,6,6,5,14,8,,0.00,4,,57
2011-10-29,73,60,48,57,51,48,100,83,43,30.27,30.13,30.01,6,5,2,12,7,,0.00,4,Fog,40
2011-10-30,66,58,50,55,49,43,94,72,55,30.24,30.16,30.06,6,6,6,17,8,,0.00,1,,9
2011-10-31,78,64,51,57,51,46,100,72,34,30.15,29.99,29.86,,,,15,8,,0.00,,,27